sensor_id;sensor_type;location;lat;lon;timestamp;pressure;altitude;pressure_sealevel;temperature;humidity
14295;BME280;7231;59.370;18.016;2022-07-29T00:00:22;101975.78;;;13.43;79.46
14295;BME280;7231;59.370;18.016;2022-07-29T00:02:50;101966.97;;;13.42;79.56
14295;BME280;7231;59.370;18.016;2022-07-29T00:05:20;101935.34;;;13.17;79.70
14295;BME280;7231;59.370;18.016;2022-07-29T00:07:48;101972.88;;;13.35;79.80
14295;BME280;7231;59.370;18.016;2022-07-29T00:10:16;101965.66;;;13.29;79.96
14295;BME280;7231;59.370;18.016;2022-07-29T00:12:44;101976.25;;;13.31;80.52
14295;BME280;7231;59.370;18.016;2022-07-29T00:15:13;101970.09;;;13.30;80.49
14295;BME280;7231;59.370;18.016;2022-07-29T00:17:41;101973.56;;;13.29;80.84
14295;BME280;7231;59.370;18.016;2022-07-29T00:20:10;101973.50;;;13.28;80.80
14295;BME280;7231;59.370;18.016;2022-07-29T00:22:38;101972.50;;;13.24;80.68
14295;BME280;7231;59.370;18.016;2022-07-29T00:25:07;101964.53;;;13.23;80.93
14295;BME280;7231;59.370;18.016;2022-07-29T00:27:36;101966.22;;;13.21;80.72
14295;BME280;7231;59.370;18.016;2022-07-29T00:30:06;101977.56;;;13.18;80.59
14295;BME280;7231;59.370;18.016;2022-07-29T00:32:35;101974.88;;;13.17;80.73
14295;BME280;7231;59.370;18.016;2022-07-29T00:35:04;101965.13;;;13.16;80.73
14295;BME280;7231;59.370;18.016;2022-07-29T00:37:50;101968.56;;;13.13;80.19
14295;BME280;7231;59.370;18.016;2022-07-29T00:40:18;101961.38;;;13.09;80.42
14295;BME280;7231;59.370;18.016;2022-07-29T00:42:51;101938.13;;;12.96;80.13
14295;BME280;7231;59.370;18.016;2022-07-29T00:45:20;101964.75;;;13.05;80.42
14295;BME280;7231;59.370;18.016;2022-07-29T00:47:50;101961.13;;;13.01;80.31
14295;BME280;7231;59.370;18.016;2022-07-29T00:50:18;101961.94;;;12.99;80.30
14295;BME280;7231;59.370;18.016;2022-07-29T00:52:47;101954.81;;;12.96;80.68
14295;BME280;7231;59.370;18.016;2022-07-29T00:55:15;101956.56;;;12.96;80.53
14295;BME280;7231;59.370;18.016;2022-07-29T00:57:44;101947.66;;;12.92;80.49
14295;BME280;7231;59.370;18.016;2022-07-29T01:00:15;101942.28;;;12.89;80.50
14295;BME280;7231;59.370;18.016;2022-07-29T01:02:44;101955.59;;;12.94;80.30
14295;BME280;7231;59.370;18.016;2022-07-29T01:05:18;101953.81;;;12.93;80.42
14295;BME280;7231;59.370;18.016;2022-07-29T01:07:47;101956.28;;;12.88;80.49
14295;BME280;7231;59.370;18.016;2022-07-29T01:10:16;101960.53;;;12.85;80.37
14295;BME280;7231;59.370;18.016;2022-07-29T01:12:47;101963.94;;;12.82;80.54
14295;BME280;7231;59.370;18.016;2022-07-29T01:15:16;101962.09;;;12.80;80.39
14295;BME280;7231;59.370;18.016;2022-07-29T01:17:48;101958.53;;;12.78;80.53
14295;BME280;7231;59.370;18.016;2022-07-29T01:20:25;101956.63;;;12.74;80.57
14295;BME280;7231;59.370;18.016;2022-07-29T01:23:21;101959.19;;;12.72;80.77
14295;BME280;7231;59.370;18.016;2022-07-29T01:26:15;101950.28;;;12.68;80.98
14295;BME280;7231;59.370;18.016;2022-07-29T01:29:02;101959.84;;;12.66;81.00
14295;BME280;7231;59.370;18.016;2022-07-29T01:31:39;101958.06;;;12.65;80.86
14295;BME280;7231;59.370;18.016;2022-07-29T01:34:30;101961.47;;;12.63;80.74
14295;BME280;7231;59.370;18.016;2022-07-29T01:37:06;101963.09;;;12.59;80.78
14295;BME280;7231;59.370;18.016;2022-07-29T01:39:37;101955.94;;;12.55;80.71
14295;BME280;7231;59.370;18.016;2022-07-29T01:42:11;101955.81;;;12.52;81.12
14295;BME280;7231;59.370;18.016;2022-07-29T01:44:48;101953.97;;;12.50;81.16
14295;BME280;7231;59.370;18.016;2022-07-29T01:47:20;101963.47;;;12.46;81.45
14295;BME280;7231;59.370;18.016;2022-07-29T01:49:52;101962.56;;;12.46;81.23
14295;BME280;7231;59.370;18.016;2022-07-29T01:52:27;101967.72;;;12.43;81.39
14295;BME280;7231;59.370;18.016;2022-07-29T01:54:58;101949.78;;;12.32;81.52
14295;BME280;7231;59.370;18.016;2022-07-29T01:57:31;101945.44;;;12.33;81.61
14295;BME280;7231;59.370;18.016;2022-07-29T02:00:04;101946.94;;;12.26;81.82
14295;BME280;7231;59.370;18.016;2022-07-29T02:02:35;101937.00;;;12.19;82.03
14295;BME280;7231;59.370;18.016;2022-07-29T02:05:06;101958.53;;;12.31;81.99
14295;BME280;7231;59.370;18.016;2022-07-29T02:07:36;101963.72;;;12.30;82.28
14295;BME280;7231;59.370;18.016;2022-07-29T02:10:07;101964.56;;;12.29;82.34
14295;BME280;7231;59.370;18.016;2022-07-29T02:12:35;101955.53;;;12.22;82.75
14295;BME280;7231;59.370;18.016;2022-07-29T02:15:07;101967.97;;;12.26;82.69
14295;BME280;7231;59.370;18.016;2022-07-29T02:17:40;101967.84;;;12.23;83.11
14295;BME280;7231;59.370;18.016;2022-07-29T02:20:09;101966.06;;;12.22;83.21
14295;BME280;7231;59.370;18.016;2022-07-29T02:22:39;101968.69;;;12.22;83.06
14295;BME280;7231;59.370;18.016;2022-07-29T02:25:08;101903.25;;;11.85;83.54
14295;BME280;7231;59.370;18.016;2022-07-29T02:27:41;101951.53;;;12.10;83.66
14295;BME280;7231;59.370;18.016;2022-07-29T02:30:12;101964.91;;;12.16;83.53
14295;BME280;7231;59.370;18.016;2022-07-29T02:32:41;101899.25;;;11.74;83.42
14295;BME280;7231;59.370;18.016;2022-07-29T02:35:14;101966.53;;;12.12;83.80
14295;BME280;7231;59.370;18.016;2022-07-29T02:37:44;101930.47;;;11.87;83.95
14295;BME280;7231;59.370;18.016;2022-07-29T02:40:34;101971.47;;;12.05;83.87
14295;BME280;7231;59.370;18.016;2022-07-29T02:43:05;101943.75;;;11.90;84.38
14295;BME280;7231;59.370;18.016;2022-07-29T02:45:36;101969.63;;;12.02;84.21
14295;BME280;7231;59.370;18.016;2022-07-29T02:48:07;101973.16;;;12.02;84.55
14295;BME280;7231;59.370;18.016;2022-07-29T02:50:41;101973.97;;;12.01;85.11
14295;BME280;7231;59.370;18.016;2022-07-29T02:53:16;101974.81;;;12.00;85.13
14295;BME280;7231;59.370;18.016;2022-07-29T02:55:49;101985.34;;;12.00;85.48
14295;BME280;7231;59.370;18.016;2022-07-29T02:58:23;101977.38;;;11.99;85.39
14295;BME280;7231;59.370;18.016;2022-07-29T03:00:58;101972.13;;;11.99;85.49
14295;BME280;7231;59.370;18.016;2022-07-29T03:03:31;101986.94;;;11.97;85.32
14295;BME280;7231;59.370;18.016;2022-07-29T03:06:01;101978.16;;;11.96;85.78
14295;BME280;7231;59.370;18.016;2022-07-29T03:08:30;101984.31;;;11.97;85.81
14295;BME280;7231;59.370;18.016;2022-07-29T03:11:00;101982.56;;;11.97;85.97
14295;BME280;7231;59.370;18.016;2022-07-29T03:13:29;101987.84;;;11.97;86.01
14295;BME280;7231;59.370;18.016;2022-07-29T03:16:00;101988.78;;;11.99;85.89
14295;BME280;7231;59.370;18.016;2022-07-29T03:18:30;101987.06;;;12.00;86.00
14295;BME280;7231;59.370;18.016;2022-07-29T03:20:58;101997.63;;;12.01;85.96
14295;BME280;7231;59.370;18.016;2022-07-29T03:23:27;101999.38;;;12.01;86.19
14295;BME280;7231;59.370;18.016;2022-07-29T03:26:02;101988.91;;;12.02;86.38
14295;BME280;7231;59.370;18.016;2022-07-29T03:28:30;101995.13;;;12.05;86.12
14295;BME280;7231;59.370;18.016;2022-07-29T03:31:01;101997.00;;;12.07;86.30
14295;BME280;7231;59.370;18.016;2022-07-29T03:33:31;101988.97;;;12.04;86.45
14295;BME280;7231;59.370;18.016;2022-07-29T03:35:59;102000.56;;;12.09;86.41
14295;BME280;7231;59.370;18.016;2022-07-29T03:38:30;102000.66;;;12.11;86.27
14295;BME280;7231;59.370;18.016;2022-07-29T03:41:05;102006.03;;;12.14;86.25
14295;BME280;7231;59.370;18.016;2022-07-29T03:43:37;102000.81;;;12.15;86.55
14295;BME280;7231;59.370;18.016;2022-07-29T03:46:17;101997.41;;;12.18;86.34
14295;BME280;7231;59.370;18.016;2022-07-29T03:48:50;101990.38;;;12.17;86.22
14295;BME280;7231;59.370;18.016;2022-07-29T03:51:20;102004.53;;;12.20;86.46
14295;BME280;7231;59.370;18.016;2022-07-29T03:54:00;101995.69;;;12.18;86.00
14295;BME280;7231;59.370;18.016;2022-07-29T03:56:39;101977.09;;;12.14;86.40
14295;BME280;7231;59.370;18.016;2022-07-29T03:59:08;102007.59;;;12.31;86.37
14295;BME280;7231;59.370;18.016;2022-07-29T04:01:40;101998.94;;;12.33;86.45
14295;BME280;7231;59.370;18.016;2022-07-29T04:04:09;102005.19;;;12.37;86.17
14295;BME280;7231;59.370;18.016;2022-07-29T04:06:39;102007.13;;;12.41;86.34
14295;BME280;7231;59.370;18.016;2022-07-29T04:09:08;101993.97;;;12.41;86.22
14295;BME280;7231;59.370;18.016;2022-07-29T04:11:38;102009.28;;;12.51;86.35
14295;BME280;7231;59.370;18.016;2022-07-29T04:14:26;102011.19;;;12.55;85.92
14295;BME280;7231;59.370;18.016;2022-07-29T04:16:55;102010.47;;;12.59;85.40
14295;BME280;7231;59.370;18.016;2022-07-29T04:19:23;101998.16;;;12.58;85.12
14295;BME280;7231;59.370;18.016;2022-07-29T04:21:51;102017.88;;;12.70;85.40
14295;BME280;7231;59.370;18.016;2022-07-29T04:24:19;101999.38;;;12.68;85.13
14295;BME280;7231;59.370;18.016;2022-07-29T04:26:50;102003.16;;;12.75;84.89
14295;BME280;7231;59.370;18.016;2022-07-29T04:29:18;102011.44;;;12.85;85.11
14295;BME280;7231;59.370;18.016;2022-07-29T04:31:46;102010.72;;;12.89;84.90
14295;BME280;7231;59.370;18.016;2022-07-29T04:34:16;102013.63;;;12.97;84.61
14295;BME280;7231;59.370;18.016;2022-07-29T04:36:45;102010.34;;;13.04;84.61
14295;BME280;7231;59.370;18.016;2022-07-29T04:39:13;102000.84;;;13.08;84.56
14295;BME280;7231;59.370;18.016;2022-07-29T04:41:48;102007.59;;;13.23;84.10
14295;BME280;7231;59.370;18.016;2022-07-29T04:44:20;102014.91;;;13.32;83.69
14295;BME280;7231;59.370;18.016;2022-07-29T04:46:54;101994.78;;;13.34;83.59
14295;BME280;7231;59.370;18.016;2022-07-29T04:49:24;102013.81;;;13.51;83.18
14295;BME280;7231;59.370;18.016;2022-07-29T04:51:52;102014.16;;;13.60;82.98
14295;BME280;7231;59.370;18.016;2022-07-29T04:54:20;102021.53;;;13.70;82.91
14295;BME280;7231;59.370;18.016;2022-07-29T04:56:50;102012.03;;;13.75;82.32
14295;BME280;7231;59.370;18.016;2022-07-29T04:59:18;102008.84;;;13.85;82.19
14295;BME280;7231;59.370;18.016;2022-07-29T05:01:46;102011.78;;;13.94;81.87
14295;BME280;7231;59.370;18.016;2022-07-29T05:04:14;102005.94;;;14.03;81.61
14295;BME280;7231;59.370;18.016;2022-07-29T05:06:44;102009.59;;;14.08;81.45
14295;BME280;7231;59.370;18.016;2022-07-29T05:09:12;102012.41;;;14.13;81.27
14295;BME280;7231;59.370;18.016;2022-07-29T05:11:40;102002.84;;;14.16;81.07
14295;BME280;7231;59.370;18.016;2022-07-29T05:14:08;102012.69;;;14.22;80.96
14295;BME280;7231;59.370;18.016;2022-07-29T05:16:36;102012.88;;;14.28;81.03
14295;BME280;7231;59.370;18.016;2022-07-29T05:19:05;102006.09;;;14.36;81.00
14295;BME280;7231;59.370;18.016;2022-07-29T05:21:39;102009.00;;;14.44;80.91
14295;BME280;7231;59.370;18.016;2022-07-29T05:24:09;101995.97;;;14.48;80.77
14295;BME280;7231;59.370;18.016;2022-07-29T05:26:38;102013.13;;;14.63;80.60
14295;BME280;7231;59.370;18.016;2022-07-29T05:29:06;102012.50;;;14.71;80.35
14295;BME280;7231;59.370;18.016;2022-07-29T05:31:55;102018.19;;;14.85;80.09
14295;BME280;7231;59.370;18.016;2022-07-29T05:34:23;102022.78;;;14.92;80.19
14295;BME280;7231;59.370;18.016;2022-07-29T05:36:51;102023.81;;;14.97;79.92
14295;BME280;7231;59.370;18.016;2022-07-29T05:39:22;102023.31;;;15.10;79.65
14295;BME280;7231;59.370;18.016;2022-07-29T05:42:10;102023.66;;;15.22;79.41
14295;BME280;7231;59.370;18.016;2022-07-29T05:44:38;102025.63;;;15.30;79.23
14295;BME280;7231;59.370;18.016;2022-07-29T05:47:06;102030.41;;;15.43;79.08
14295;BME280;7231;59.370;18.016;2022-07-29T05:49:34;101978.75;;;15.22;78.97
14295;BME280;7231;59.370;18.016;2022-07-29T05:52:03;102012.84;;;15.45;78.77
14295;BME280;7231;59.370;18.016;2022-07-29T05:54:32;102027.44;;;15.64;78.58
14295;BME280;7231;59.370;18.016;2022-07-29T05:57:00;102016.94;;;15.67;78.34
14295;BME280;7231;59.370;18.016;2022-07-29T05:59:29;102022.50;;;15.77;77.95
14295;BME280;7231;59.370;18.016;2022-07-29T06:01:57;102022.66;;;15.83;77.50
14295;BME280;7231;59.370;18.016;2022-07-29T06:04:25;102007.50;;;15.76;76.93
14295;BME280;7231;59.370;18.016;2022-07-29T06:06:53;102022.84;;;15.91;76.54
14295;BME280;7231;59.370;18.016;2022-07-29T06:09:21;102025.53;;;15.93;76.75
14295;BME280;7231;59.370;18.016;2022-07-29T06:11:51;102026.50;;;15.96;75.93
14295;BME280;7231;59.370;18.016;2022-07-29T06:14:19;102021.25;;;15.98;75.04
14295;BME280;7231;59.370;18.016;2022-07-29T06:16:47;102029.34;;;16.04;74.23
14295;BME280;7231;59.370;18.016;2022-07-29T06:19:15;102032.06;;;16.07;73.55
14295;BME280;7231;59.370;18.016;2022-07-29T06:21:43;102030.41;;;16.12;72.99
14295;BME280;7231;59.370;18.016;2022-07-29T06:24:12;102038.53;;;16.19;72.29
14295;BME280;7231;59.370;18.016;2022-07-29T06:26:42;102037.81;;;16.25;71.30
14295;BME280;7231;59.370;18.016;2022-07-29T06:29:11;102044.13;;;16.32;70.37
14295;BME280;7231;59.370;18.016;2022-07-29T06:31:39;102042.50;;;16.37;70.02
14295;BME280;7231;59.370;18.016;2022-07-29T06:34:08;102045.34;;;16.46;69.47
14295;BME280;7231;59.370;18.016;2022-07-29T06:36:36;102041.06;;;16.51;68.97
14295;BME280;7231;59.370;18.016;2022-07-29T06:39:07;102046.69;;;16.65;67.81
14295;BME280;7231;59.370;18.016;2022-07-29T06:41:37;102054.88;;;16.75;66.72
14295;BME280;7231;59.370;18.016;2022-07-29T06:44:05;102049.75;;;16.83;66.54
14295;BME280;7231;59.370;18.016;2022-07-29T06:46:34;102041.78;;;16.81;66.32
14295;BME280;7231;59.370;18.016;2022-07-29T06:49:03;102051.75;;;16.93;65.84
14295;BME280;7231;59.370;18.016;2022-07-29T06:51:32;102047.44;;;16.98;64.76
14295;BME280;7231;59.370;18.016;2022-07-29T06:54:00;102053.72;;;17.03;63.50
14295;BME280;7231;59.370;18.016;2022-07-29T06:56:29;102052.94;;;17.09;62.43
14295;BME280;7231;59.370;18.016;2022-07-29T06:59:05;102056.66;;;17.17;62.15
14295;BME280;7231;59.370;18.016;2022-07-29T07:01:35;102013.97;;;17.03;61.50
14295;BME280;7231;59.370;18.016;2022-07-29T07:04:04;102057.91;;;17.36;60.92
14295;BME280;7231;59.370;18.016;2022-07-29T07:06:32;102058.22;;;17.51;60.24
14295;BME280;7231;59.370;18.016;2022-07-29T07:09:00;102059.28;;;17.61;59.83
14295;BME280;7231;59.370;18.016;2022-07-29T07:11:28;102046.97;;;17.64;59.10
14295;BME280;7231;59.370;18.016;2022-07-29T07:13:56;102058.03;;;17.87;58.49
14295;BME280;7231;59.370;18.016;2022-07-29T07:16:30;102048.56;;;18.03;58.53
14295;BME280;7231;59.370;18.016;2022-07-29T07:19:00;102040.75;;;18.12;58.30
14295;BME280;7231;59.370;18.016;2022-07-29T07:21:29;102046.47;;;18.39;58.17
14295;BME280;7231;59.370;18.016;2022-07-29T07:23:57;102045.06;;;18.63;57.21
14295;BME280;7231;59.370;18.016;2022-07-29T07:26:26;102042.72;;;18.84;56.16
14295;BME280;7231;59.370;18.016;2022-07-29T07:28:54;102039.50;;;19.11;56.05
14295;BME280;7231;59.370;18.016;2022-07-29T07:31:22;102043.69;;;19.63;55.88
14295;BME280;7231;59.370;18.016;2022-07-29T07:33:50;102046.09;;;20.37;56.14
14295;BME280;7231;59.370;18.016;2022-07-29T07:36:21;102040.38;;;21.42;54.54
14295;BME280;7231;59.370;18.016;2022-07-29T07:38:49;102039.56;;;22.42;52.44
14295;BME280;7231;59.370;18.016;2022-07-29T07:41:17;102020.59;;;23.24;50.24
14295;BME280;7231;59.370;18.016;2022-07-29T07:43:46;102023.56;;;24.07;47.87
14295;BME280;7231;59.370;18.016;2022-07-29T07:46:14;101989.19;;;24.52;45.77
14295;BME280;7231;59.370;18.016;2022-07-29T07:48:42;102018.50;;;25.38;44.33
14295;BME280;7231;59.370;18.016;2022-07-29T07:51:11;102011.38;;;25.95;42.48
14295;BME280;7231;59.370;18.016;2022-07-29T07:53:40;101970.53;;;26.21;41.08
14295;BME280;7231;59.370;18.016;2022-07-29T07:56:09;102004.56;;;26.71;40.59
14295;BME280;7231;59.370;18.016;2022-07-29T07:58:38;102007.63;;;26.96;39.35
14295;BME280;7231;59.370;18.016;2022-07-29T08:01:06;102008.06;;;27.18;38.90
14295;BME280;7231;59.370;18.016;2022-07-29T08:03:35;102007.22;;;27.55;37.71
14295;BME280;7231;59.370;18.016;2022-07-29T08:06:03;102011.03;;;27.83;37.37
14295;BME280;7231;59.370;18.016;2022-07-29T08:08:31;102013.97;;;28.09;36.88
14295;BME280;7231;59.370;18.016;2022-07-29T08:11:01;102015.03;;;28.38;35.74
14295;BME280;7231;59.370;18.016;2022-07-29T08:13:36;102007.75;;;28.71;35.94
14295;BME280;7231;59.370;18.016;2022-07-29T08:16:04;102013.13;;;29.03;35.89
14295;BME280;7231;59.370;18.016;2022-07-29T08:18:40;102010.84;;;29.19;34.84
14295;BME280;7231;59.370;18.016;2022-07-29T08:21:09;102011.41;;;29.30;34.67
14295;BME280;7231;59.370;18.016;2022-07-29T08:23:41;102005.81;;;29.36;34.40
14295;BME280;7231;59.370;18.016;2022-07-29T08:26:25;101979.66;;;29.37;33.38
14295;BME280;7231;59.370;18.016;2022-07-29T08:28:53;102009.31;;;29.68;32.94
14295;BME280;7231;59.370;18.016;2022-07-29T08:31:22;102009.16;;;29.72;33.02
14295;BME280;7231;59.370;18.016;2022-07-29T08:33:50;102010.69;;;29.81;33.13
14295;BME280;7231;59.370;18.016;2022-07-29T08:36:18;102014.50;;;30.02;32.73
14295;BME280;7231;59.370;18.016;2022-07-29T08:38:47;102010.28;;;30.20;31.88
14295;BME280;7231;59.370;18.016;2022-07-29T08:41:16;102011.38;;;30.39;31.69
14295;BME280;7231;59.370;18.016;2022-07-29T08:43:47;102010.34;;;30.68;31.98
14295;BME280;7231;59.370;18.016;2022-07-29T08:46:16;102006.13;;;31.08;31.58
14295;BME280;7231;59.370;18.016;2022-07-29T08:48:45;102001.00;;;31.45;30.54
14295;BME280;7231;59.370;18.016;2022-07-29T08:51:15;101988.72;;;31.58;30.11
14295;BME280;7231;59.370;18.016;2022-07-29T08:53:45;102006.75;;;31.81;29.51
14295;BME280;7231;59.370;18.016;2022-07-29T08:56:14;102005.41;;;31.48;28.92
14295;BME280;7231;59.370;18.016;2022-07-29T08:58:43;101949.38;;;30.58;28.84
14295;BME280;7231;59.370;18.016;2022-07-29T09:01:22;102008.34;;;30.23;29.63
14295;BME280;7231;59.370;18.016;2022-07-29T09:04:10;102006.47;;;29.72;29.92
14295;BME280;7231;59.370;18.016;2022-07-29T09:06:42;101997.16;;;28.96;30.28
14295;BME280;7231;59.370;18.016;2022-07-29T09:09:12;101990.06;;;28.30;31.59
14295;BME280;7231;59.370;18.016;2022-07-29T09:11:41;102005.38;;;27.94;31.28
14295;BME280;7231;59.370;18.016;2022-07-29T09:14:12;102011.09;;;27.43;31.68
14295;BME280;7231;59.370;18.016;2022-07-29T09:16:50;101957.50;;;26.91;34.08
14295;BME280;7231;59.370;18.016;2022-07-29T09:19:27;102009.88;;;27.17;33.41
14295;BME280;7231;59.370;18.016;2022-07-29T09:21:57;101993.53;;;26.83;34.14
14295;BME280;7231;59.370;18.016;2022-07-29T09:24:26;102012.38;;;26.83;34.33
14295;BME280;7231;59.370;18.016;2022-07-29T09:26:54;101965.78;;;27.22;34.37
14295;BME280;7231;59.370;18.016;2022-07-29T09:29:23;101991.09;;;27.90;33.39
14295;BME280;7231;59.370;18.016;2022-07-29T09:31:54;101999.53;;;27.76;32.61
14295;BME280;7231;59.370;18.016;2022-07-29T09:34:24;101963.84;;;27.28;33.26
14295;BME280;7231;59.370;18.016;2022-07-29T09:36:54;101990.16;;;27.54;33.18
14295;BME280;7231;59.370;18.016;2022-07-29T09:39:28;101984.41;;;27.32;32.91
14295;BME280;7231;59.370;18.016;2022-07-29T09:41:58;101986.72;;;27.47;32.57
14295;BME280;7231;59.370;18.016;2022-07-29T09:44:27;101971.72;;;27.37;32.69
14295;BME280;7231;59.370;18.016;2022-07-29T09:47:09;101952.34;;;27.59;32.58
14295;BME280;7231;59.370;18.016;2022-07-29T09:49:51;101990.84;;;27.99;33.45
14295;BME280;7231;59.370;18.016;2022-07-29T09:52:19;101992.13;;;28.84;32.53
14295;BME280;7231;59.370;18.016;2022-07-29T09:54:47;101984.84;;;29.45;31.93
14295;BME280;7231;59.370;18.016;2022-07-29T09:57:24;101997.97;;;29.27;32.07
14295;BME280;7231;59.370;18.016;2022-07-29T09:59:57;101986.34;;;29.25;31.70
14295;BME280;7231;59.370;18.016;2022-07-29T10:02:31;101994.50;;;28.94;30.57
14295;BME280;7231;59.370;18.016;2022-07-29T10:05:02;101991.75;;;28.34;31.10
14295;BME280;7231;59.370;18.016;2022-07-29T10:07:44;101998.06;;;27.63;32.09
14295;BME280;7231;59.370;18.016;2022-07-29T10:10:21;101998.53;;;27.03;32.86
14295;BME280;7231;59.370;18.016;2022-07-29T10:12:54;101999.34;;;26.62;33.29
14295;BME280;7231;59.370;18.016;2022-07-29T10:15:23;102000.09;;;26.23;34.07
14295;BME280;7231;59.370;18.016;2022-07-29T10:17:54;101998.13;;;25.83;34.43
14295;BME280;7231;59.370;18.016;2022-07-29T10:20:23;101995.34;;;25.89;35.41
14295;BME280;7231;59.370;18.016;2022-07-29T10:22:52;101956.16;;;26.24;35.59
14295;BME280;7231;59.370;18.016;2022-07-29T10:25:21;101994.47;;;27.24;34.07
14295;BME280;7231;59.370;18.016;2022-07-29T10:27:50;101988.28;;;27.95;33.52
14295;BME280;7231;59.370;18.016;2022-07-29T10:30:21;101981.88;;;28.64;31.91
14295;BME280;7231;59.370;18.016;2022-07-29T10:33:01;101992.38;;;29.33;33.08
14295;BME280;7231;59.370;18.016;2022-07-29T10:35:48;101978.16;;;29.56;30.61
14295;BME280;7231;59.370;18.016;2022-07-29T10:38:41;101984.31;;;29.04;30.30
14295;BME280;7231;59.370;18.016;2022-07-29T10:41:20;101988.13;;;28.35;30.91
14295;BME280;7231;59.370;18.016;2022-07-29T10:44:18;101982.78;;;27.64;31.39
14295;BME280;7231;59.370;18.016;2022-07-29T10:46:49;101989.22;;;27.18;32.29
14295;BME280;7231;59.370;18.016;2022-07-29T10:49:20;101979.28;;;26.78;32.78
14295;BME280;7231;59.370;18.016;2022-07-29T10:51:52;101979.16;;;26.41;32.88
14295;BME280;7231;59.370;18.016;2022-07-29T10:54:39;101980.63;;;26.08;33.92
14295;BME280;7231;59.370;18.016;2022-07-29T10:57:14;101976.19;;;26.06;33.65
14295;BME280;7231;59.370;18.016;2022-07-29T10:59:43;101968.25;;;26.49;35.49
14295;BME280;7231;59.370;18.016;2022-07-29T11:02:43;101969.53;;;27.16;33.86
14295;BME280;7231;59.370;18.016;2022-07-29T11:05:17;101971.06;;;26.86;33.28
14295;BME280;7231;59.370;18.016;2022-07-29T11:08:22;101974.53;;;26.48;34.37
14295;BME280;7231;59.370;18.016;2022-07-29T11:14:17;101962.84;;;28.05;33.69
14295;BME280;7231;59.370;18.016;2022-07-29T11:17:00;101950.94;;;28.75;31.98
14295;BME280;7231;59.370;18.016;2022-07-29T11:19:33;101959.03;;;29.34;31.77
14295;BME280;7231;59.370;18.016;2022-07-29T11:22:09;101957.16;;;29.91;30.69
14295;BME280;7231;59.370;18.016;2022-07-29T11:24:42;101960.53;;;30.24;30.22
14295;BME280;7231;59.370;18.016;2022-07-29T11:27:17;101947.78;;;30.51;29.53
14295;BME280;7231;59.370;18.016;2022-07-29T11:29:50;101937.63;;;30.57;29.11
14295;BME280;7231;59.370;18.016;2022-07-29T11:32:20;101954.09;;;30.51;28.36
14295;BME280;7231;59.370;18.016;2022-07-29T11:35:13;101949.72;;;30.47;27.92
14295;BME280;7231;59.370;18.016;2022-07-29T11:38:25;101949.06;;;30.65;29.50
14295;BME280;7231;59.370;18.016;2022-07-29T11:41:20;101951.91;;;30.86;29.26
14295;BME280;7231;59.370;18.016;2022-07-29T11:43:50;101952.78;;;31.31;30.08
14295;BME280;7231;59.370;18.016;2022-07-29T11:46:46;101945.31;;;31.58;27.61
14295;BME280;7231;59.370;18.016;2022-07-29T11:49:19;101941.69;;;31.38;26.93
14295;BME280;7231;59.370;18.016;2022-07-29T11:51:59;101948.78;;;30.96;27.30
14295;BME280;7231;59.370;18.016;2022-07-29T11:54:50;101943.84;;;30.61;27.80
14295;BME280;7231;59.370;18.016;2022-07-29T11:57:35;101955.06;;;30.00;27.78
14295;BME280;7231;59.370;18.016;2022-07-29T12:00:04;101950.19;;;29.29;29.01
14295;BME280;7231;59.370;18.016;2022-07-29T12:02:38;101956.38;;;29.05;29.34
14295;BME280;7231;59.370;18.016;2022-07-29T12:05:09;101956.13;;;28.83;29.01
14295;BME280;7231;59.370;18.016;2022-07-29T12:07:38;101953.66;;;28.12;29.30
14295;BME280;7231;59.370;18.016;2022-07-29T12:10:14;101958.09;;;27.43;29.78
14295;BME280;7231;59.370;18.016;2022-07-29T12:12:55;101955.88;;;27.62;30.69
14295;BME280;7231;59.370;18.016;2022-07-29T12:15:24;101942.72;;;27.84;30.59
14295;BME280;7231;59.370;18.016;2022-07-29T12:18:14;101932.13;;;27.41;30.60
14295;BME280;7231;59.370;18.016;2022-07-29T12:20:44;101946.44;;;27.04;30.51
14295;BME280;7231;59.370;18.016;2022-07-29T12:23:14;101955.84;;;25.94;31.41
14295;BME280;7231;59.370;18.016;2022-07-29T12:25:46;101940.81;;;25.82;33.22
14295;BME280;7231;59.370;18.016;2022-07-29T12:28:15;101941.53;;;26.81;32.37
14295;BME280;7231;59.370;18.016;2022-07-29T12:30:52;101941.31;;;26.50;31.82
14295;BME280;7231;59.370;18.016;2022-07-29T12:33:23;101947.28;;;26.18;31.69
14295;BME280;7231;59.370;18.016;2022-07-29T12:35:54;101942.28;;;26.00;32.03
14295;BME280;7231;59.370;18.016;2022-07-29T12:38:33;101946.00;;;25.93;32.63
14295;BME280;7231;59.370;18.016;2022-07-29T12:41:03;101949.81;;;25.80;32.47
14295;BME280;7231;59.370;18.016;2022-07-29T12:43:32;101947.34;;;25.68;32.73
14295;BME280;7231;59.370;18.016;2022-07-29T12:46:12;101941.28;;;25.53;32.84
14295;BME280;7231;59.370;18.016;2022-07-29T12:48:42;101947.31;;;25.69;34.02
14295;BME280;7231;59.370;18.016;2022-07-29T12:51:11;101935.31;;;26.36;33.58
14295;BME280;7231;59.370;18.016;2022-07-29T12:53:41;101936.13;;;27.23;32.25
14295;BME280;7231;59.370;18.016;2022-07-29T12:56:16;101935.59;;;28.16;31.34
14295;BME280;7231;59.370;18.016;2022-07-29T12:59:15;101888.63;;;28.24;30.45
14295;BME280;7231;59.370;18.016;2022-07-29T13:01:44;101935.00;;;28.97;31.15
14295;BME280;7231;59.370;18.016;2022-07-29T13:04:24;101926.47;;;29.92;29.13
14295;BME280;7231;59.370;18.016;2022-07-29T13:06:58;101919.47;;;29.86;28.86
14295;BME280;7231;59.370;18.016;2022-07-29T13:09:37;101922.91;;;30.41;29.31
14295;BME280;7231;59.370;18.016;2022-07-29T13:12:08;101929.81;;;31.62;30.57
14295;BME280;7231;59.370;18.016;2022-07-29T13:14:38;101919.53;;;32.70;28.56
14295;BME280;7231;59.370;18.016;2022-07-29T13:17:08;101916.56;;;33.50;28.69
14295;BME280;7231;59.370;18.016;2022-07-29T13:19:38;101913.22;;;34.14;26.44